sensor_id;sensor_type;location;lat;lon;timestamp;temperature;humidity
71254;HTU21D;59019;47.638;18.966;2022-09-09T00:03:54;16.90;96.92
71254;HTU21D;59019;47.638;18.966;2022-09-09T00:06:31;16.78;96.53
71254;HTU21D;59019;47.638;18.966;2022-09-09T00:09:07;16.77;96.99
71254;HTU21D;59019;47.638;18.966;2022-09-09T00:11:40;16.78;97.31
71254;HTU21D;59019;47.638;18.966;2022-09-09T00:17:02;16.79;97.46
71254;HTU21D;59019;47.638;18.966;2022-09-09T00:19:41;16.87;96.81
71254;HTU21D;59019;47.638;18.966;2022-09-09T00:22:19;16.87;96.91
71254;HTU21D;59019;47.638;18.966;2022-09-09T00:24:49;16.94;96.52
71254;HTU21D;59019;47.638;18.966;2022-09-09T00:27:40;16.94;96.22
71254;HTU21D;59019;47.638;18.966;2022-09-09T00:32:39;16.98;96.58
71254;HTU21D;59019;47.638;18.966;2022-09-09T00:35:27;16.82;97.32
71254;HTU21D;59019;47.638;18.966;2022-09-09T00:38:01;16.84;97.50
71254;HTU21D;59019;47.638;18.966;2022-09-09T00:40:37;16.84;97.62
71254;HTU21D;59019;47.638;18.966;2022-09-09T00:56:38;16.81;97.83
71254;HTU21D;59019;47.638;18.966;2022-09-09T01:01:39;16.78;98.52
71254;HTU21D;59019;47.638;18.966;2022-09-09T01:04:13;16.88;97.84
71254;HTU21D;59019;47.638;18.966;2022-09-09T01:06:41;16.78;98.06
71254;HTU21D;59019;47.638;18.966;2022-09-09T01:09:32;16.80;98.37
71254;HTU21D;59019;47.638;18.966;2022-09-09T01:17:20;16.71;98.41
71254;HTU21D;59019;47.638;18.966;2022-09-09T01:20:08;16.76;98.58
71254;HTU21D;59019;47.638;18.966;2022-09-09T01:22:47;16.80;98.61
71254;HTU21D;59019;47.638;18.966;2022-09-09T01:25:20;16.67;98.46
71254;HTU21D;59019;47.638;18.966;2022-09-09T01:27:49;16.70;98.58
71254;HTU21D;59019;47.638;18.966;2022-09-09T01:30:17;16.74;97.25
71254;HTU21D;59019;47.638;18.966;2022-09-09T01:32:46;16.80;97.29
71254;HTU21D;59019;47.638;18.966;2022-09-09T01:35:27;16.76;97.36
71254;HTU21D;59019;47.638;18.966;2022-09-09T01:37:55;16.64;97.90
71254;HTU21D;59019;47.638;18.966;2022-09-09T01:40:21;16.64;97.90
71254;HTU21D;59019;47.638;18.966;2022-09-09T01:42:47;16.80;97.05
71254;HTU21D;59019;47.638;18.966;2022-09-09T01:45:13;16.73;97.06
71254;HTU21D;59019;47.638;18.966;2022-09-09T01:47:38;16.84;96.64
71254;HTU21D;59019;47.638;18.966;2022-09-09T01:50:04;16.85;96.26
71254;HTU21D;59019;47.638;18.966;2022-09-09T01:52:31;16.78;96.20
71254;HTU21D;59019;47.638;18.966;2022-09-09T01:54:59;16.79;96.29
71254;HTU21D;59019;47.638;18.966;2022-09-09T01:57:27;16.77;95.95
71254;HTU21D;59019;47.638;18.966;2022-09-09T02:00:08;16.77;96.31
71254;HTU21D;59019;47.638;18.966;2022-09-09T02:03:11;16.73;96.18
71254;HTU21D;59019;47.638;18.966;2022-09-09T02:05:54;16.73;96.43
71254;HTU21D;59019;47.638;18.966;2022-09-09T02:08:24;16.61;97.04
71254;HTU21D;59019;47.638;18.966;2022-09-09T02:13:29;16.73;96.46
71254;HTU21D;59019;47.638;18.966;2022-09-09T02:18:48;16.76;96.84
71254;HTU21D;59019;47.638;18.966;2022-09-09T02:21:16;16.56;97.55
71254;HTU21D;59019;47.638;18.966;2022-09-09T02:23:43;16.60;97.34
71254;HTU21D;59019;47.638;18.966;2022-09-09T02:26:11;16.65;97.51
71254;HTU21D;59019;47.638;18.966;2022-09-09T02:28:40;16.60;97.65
71254;HTU21D;59019;47.638;18.966;2022-09-09T02:31:07;16.73;97.29
71254;HTU21D;59019;47.638;18.966;2022-09-09T02:33:37;16.61;97.36
71254;HTU21D;59019;47.638;18.966;2022-09-09T02:36:04;16.46;97.99
71254;HTU21D;59019;47.638;18.966;2022-09-09T02:38:36;16.56;97.89
71254;HTU21D;59019;47.638;18.966;2022-09-09T02:41:03;16.49;98.19
71254;HTU21D;59019;47.638;18.966;2022-09-09T02:43:33;16.58;98.06
71254;HTU21D;59019;47.638;18.966;2022-09-09T02:46:42;16.60;97.88
71254;HTU21D;59019;47.638;18.966;2022-09-09T02:49:41;16.45;98.27
71254;HTU21D;59019;47.638;18.966;2022-09-09T02:52:13;16.55;97.78
71254;HTU21D;59019;47.638;18.966;2022-09-09T02:54:43;16.41;97.84
71254;HTU21D;59019;47.638;18.966;2022-09-09T02:57:16;16.36;97.93
71254;HTU21D;59019;47.638;18.966;2022-09-09T02:59:44;16.41;97.78
71254;HTU21D;59019;47.638;18.966;2022-09-09T03:02:10;16.39;98.16
71254;HTU21D;59019;47.638;18.966;2022-09-09T03:04:39;16.40;98.09
71254;HTU21D;59019;47.638;18.966;2022-09-09T03:07:05;16.26;98.45
71254;HTU21D;59019;47.638;18.966;2022-09-09T03:09:31;16.29;98.52
71254;HTU21D;59019;47.638;18.966;2022-09-09T03:11:58;16.24;98.78
71254;HTU21D;59019;47.638;18.966;2022-09-09T03:14:24;16.41;98.23
71254;HTU21D;59019;47.638;18.966;2022-09-09T03:16:51;16.22;98.58
71254;HTU21D;59019;47.638;18.966;2022-09-09T03:19:16;16.18;98.93
71254;HTU21D;59019;47.638;18.966;2022-09-09T03:21:44;16.03;99.55
71254;HTU21D;59019;47.638;18.966;2022-09-09T03:24:10;16.08;99.32
71254;HTU21D;59019;47.638;18.966;2022-09-09T03:26:36;16.25;99.07
71254;HTU21D;59019;47.638;18.966;2022-09-09T03:29:03;16.16;98.94
71254;HTU21D;59019;47.638;18.966;2022-09-09T03:31:32;16.27;98.68
71254;HTU21D;59019;47.638;18.966;2022-09-09T03:33:58;16.15;98.59
71254;HTU21D;59019;47.638;18.966;2022-09-09T03:36:26;16.14;98.97
71254;HTU21D;59019;47.638;18.966;2022-09-09T03:38:52;16.07;99.03
71254;HTU21D;59019;47.638;18.966;2022-09-09T03:41:20;16.10;99.02
71254;HTU21D;59019;47.638;18.966;2022-09-09T03:43:46;16.11;99.06
71254;HTU21D;59019;47.638;18.966;2022-09-09T03:46:11;15.93;99.39
71254;HTU21D;59019;47.638;18.966;2022-09-09T03:48:37;15.96;99.15
71254;HTU21D;59019;47.638;18.966;2022-09-09T03:51:02;15.98;99.11
71254;HTU21D;59019;47.638;18.966;2022-09-09T03:53:29;15.98;99.41
71254;HTU21D;59019;47.638;18.966;2022-09-09T03:55:55;16.00;98.98
71254;HTU21D;59019;47.638;18.966;2022-09-09T03:58:22;16.00;99.13
71254;HTU21D;59019;47.638;18.966;2022-09-09T04:03:21;16.02;99.05
71254;HTU21D;59019;47.638;18.966;2022-09-09T04:05:51;15.93;99.19
71254;HTU21D;59019;47.638;18.966;2022-09-09T04:08:18;15.92;99.35
71254;HTU21D;59019;47.638;18.966;2022-09-09T04:10:50;15.96;99.32
71254;HTU21D;59019;47.638;18.966;2022-09-09T04:13:16;15.98;99.55
71254;HTU21D;59019;47.638;18.966;2022-09-09T04:15:44;16.01;99.09
71254;HTU21D;59019;47.638;18.966;2022-09-09T04:18:10;16.02;99.25
71254;HTU21D;59019;47.638;18.966;2022-09-09T04:20:37;15.91;99.34
71254;HTU21D;59019;47.638;18.966;2022-09-09T04:23:03;15.82;99.45
71254;HTU21D;59019;47.638;18.966;2022-09-09T04:25:29;15.82;99.58
71254;HTU21D;59019;47.638;18.966;2022-09-09T04:27:55;15.86;99.70
71254;HTU21D;59019;47.638;18.966;2022-09-09T04:30:22;15.85;99.30
71254;HTU21D;59019;47.638;18.966;2022-09-09T04:32:47;15.97;98.60
71254;HTU21D;59019;47.638;18.966;2022-09-09T04:35:13;16.04;98.82
71254;HTU21D;59019;47.638;18.966;2022-09-09T04:37:38;16.06;98.66
71254;HTU21D;59019;47.638;18.966;2022-09-09T04:40:05;16.02;98.69
71254;HTU21D;59019;47.638;18.966;2022-09-09T04:42:35;16.10;98.83
71254;HTU21D;59019;47.638;18.966;2022-09-09T04:45:01;16.21;98.19
71254;HTU21D;59019;47.638;18.966;2022-09-09T04:47:28;16.13;98.23
71254;HTU21D;59019;47.638;18.966;2022-09-09T04:49:53;16.12;98.30
71254;HTU21D;59019;47.638;18.966;2022-09-09T04:52:20;16.20;97.74
71254;HTU21D;59019;47.638;18.966;2022-09-09T04:54:46;16.35;97.18
71254;HTU21D;59019;47.638;18.966;2022-09-09T04:57:12;16.42;97.03
71254;HTU21D;59019;47.638;18.966;2022-09-09T04:59:37;16.44;96.81
71254;HTU21D;59019;47.638;18.966;2022-09-09T05:02:05;16.47;96.90
71254;HTU21D;59019;47.638;18.966;2022-09-09T05:04:31;16.60;96.27
71254;HTU21D;59019;47.638;18.966;2022-09-09T05:06:59;16.64;95.80
71254;HTU21D;59019;47.638;18.966;2022-09-09T05:09:25;16.64;95.90
71254;HTU21D;59019;47.638;18.966;2022-09-09T05:11:50;16.74;95.67
71254;HTU21D;59019;47.638;18.966;2022-09-09T05:14:16;16.77;95.49
71254;HTU21D;59019;47.638;18.966;2022-09-09T05:16:44;16.77;95.86
71254;HTU21D;59019;47.638;18.966;2022-09-09T05:19:10;16.96;95.33
71254;HTU21D;59019;47.638;18.966;2022-09-09T05:21:35;16.98;94.75
71254;HTU21D;59019;47.638;18.966;2022-09-09T05:24:01;17.13;93.89
71254;HTU21D;59019;47.638;18.966;2022-09-09T05:26:27;17.07;94.36
71254;HTU21D;59019;47.638;18.966;2022-09-09T05:28:55;17.06;95.13
71254;HTU21D;59019;47.638;18.966;2022-09-09T05:31:21;17.14;94.99
71254;HTU21D;59019;47.638;18.966;2022-09-09T05:33:47;17.21;94.79
71254;HTU21D;59019;47.638;18.966;2022-09-09T05:36:16;17.33;94.15
71254;HTU21D;59019;47.638;18.966;2022-09-09T05:38:43;17.28;94.07
71254;HTU21D;59019;47.638;18.966;2022-09-09T05:41:10;17.37;94.72
71254;HTU21D;59019;47.638;18.966;2022-09-09T05:43:37;17.41;94.76
71254;HTU21D;59019;47.638;18.966;2022-09-09T05:46:08;17.60;94.10
71254;HTU21D;59019;47.638;18.966;2022-09-09T05:48:35;17.56;94.49
71254;HTU21D;59019;47.638;18.966;2022-09-09T05:51:04;17.75;93.97
71254;HTU21D;59019;47.638;18.966;2022-09-09T05:53:30;17.72;94.30
71254;HTU21D;59019;47.638;18.966;2022-09-09T05:56:03;17.87;94.38
71254;HTU21D;59019;47.638;18.966;2022-09-09T05:58:32;17.93;94.35
71254;HTU21D;59019;47.638;18.966;2022-09-09T06:01:04;18.13;93.77
71254;HTU21D;59019;47.638;18.966;2022-09-09T06:03:32;18.17;93.91
71254;HTU21D;59019;47.638;18.966;2022-09-09T06:06:03;18.30;93.35
71254;HTU21D;59019;47.638;18.966;2022-09-09T06:08:36;18.57;92.19
71254;HTU21D;59019;47.638;18.966;2022-09-09T06:13:38;18.81;90.94
71254;HTU21D;59019;47.638;18.966;2022-09-09T06:16:05;18.74;90.89
71254;HTU21D;59019;47.638;18.966;2022-09-09T06:18:32;18.86;90.56
71254;HTU21D;59019;47.638;18.966;2022-09-09T06:21:03;18.84;90.43
71254;HTU21D;59019;47.638;18.966;2022-09-09T06:23:35;18.94;90.47
71254;HTU21D;59019;47.638;18.966;2022-09-09T06:26:12;19.12;89.99
71254;HTU21D;59019;47.638;18.966;2022-09-09T06:28:38;19.20;89.42
71254;HTU21D;59019;47.638;18.966;2022-09-09T06:31:09;19.25;88.99
71254;HTU21D;59019;47.638;18.966;2022-09-09T06:33:37;19.14;89.30
71254;HTU21D;59019;47.638;18.966;2022-09-09T06:36:05;19.28;89.38
71254;HTU21D;59019;47.638;18.966;2022-09-09T06:38:31;19.44;88.47
71254;HTU21D;59019;47.638;18.966;2022-09-09T06:40:59;19.53;88.26
71254;HTU21D;59019;47.638;18.966;2022-09-09T06:43:26;19.58;87.37
71254;HTU21D;59019;47.638;18.966;2022-09-09T06:45:55;19.62;87.32
71254;HTU21D;59019;47.638;18.966;2022-09-09T06:48:21;19.70;87.59
71254;HTU21D;59019;47.638;18.966;2022-09-09T06:50:46;19.83;86.27
71254;HTU21D;59019;47.638;18.966;2022-09-09T06:53:12;19.90;86.85
71254;HTU21D;59019;47.638;18.966;2022-09-09T06:55:41;19.85;86.13
71254;HTU21D;59019;47.638;18.966;2022-09-09T06:58:09;19.82;86.38
71254;HTU21D;59019;47.638;18.966;2022-09-09T07:00:35;19.72;86.10
71254;HTU21D;59019;47.638;18.966;2022-09-09T07:03:03;19.66;87.29
71254;HTU21D;59019;47.638;18.966;2022-09-09T07:05:28;19.72;87.24
71254;HTU21D;59019;47.638;18.966;2022-09-09T07:07:54;19.69;86.96
71254;HTU21D;59019;47.638;18.966;2022-09-09T07:10:19;19.56;87.54
71254;HTU21D;59019;47.638;18.966;2022-09-09T07:12:50;19.60;87.29
71254;HTU21D;59019;47.638;18.966;2022-09-09T07:15:17;19.76;86.95
71254;HTU21D;59019;47.638;18.966;2022-09-09T07:17:44;20.10;87.54
71254;HTU21D;59019;47.638;18.966;2022-09-09T07:20:10;20.53;86.22
71254;HTU21D;59019;47.638;18.966;2022-09-09T07:22:35;21.03;84.59
71254;HTU21D;59019;47.638;18.966;2022-09-09T07:25:01;21.16;82.36
71254;HTU21D;59019;47.638;18.966;2022-09-09T07:27:27;21.25;81.50
71254;HTU21D;59019;47.638;18.966;2022-09-09T07:29:53;21.58;81.72
71254;HTU21D;59019;47.638;18.966;2022-09-09T07:32:19;22.04;80.48
71254;HTU21D;59019;47.638;18.966;2022-09-09T07:34:45;22.44;80.77
71254;HTU21D;59019;47.638;18.966;2022-09-09T07:37:12;22.66;78.79
71254;HTU21D;59019;47.638;18.966;2022-09-09T07:39:39;23.02;78.11
71254;HTU21D;59019;47.638;18.966;2022-09-09T07:42:05;23.13;76.79
71254;HTU21D;59019;47.638;18.966;2022-09-09T07:44:31;23.43;76.02
71254;HTU21D;59019;47.638;18.966;2022-09-09T07:47:01;23.55;75.76
71254;HTU21D;59019;47.638;18.966;2022-09-09T07:49:26;23.85;74.32
71254;HTU21D;59019;47.638;18.966;2022-09-09T07:51:52;24.08;73.46
71254;HTU21D;59019;47.638;18.966;2022-09-09T07:54:19;24.39;73.35
71254;HTU21D;59019;47.638;18.966;2022-09-09T07:56:46;24.46;72.39
71254;HTU21D;59019;47.638;18.966;2022-09-09T07:59:12;24.68;70.79
71254;HTU21D;59019;47.638;18.966;2022-09-09T08:01:46;24.70;71.39
71254;HTU21D;59019;47.638;18.966;2022-09-09T08:04:17;24.73;71.59
71254;HTU21D;59019;47.638;18.966;2022-09-09T08:06:55;24.89;70.07
71254;HTU21D;59019;47.638;18.966;2022-09-09T08:09:21;25.04;71.06
71254;HTU21D;59019;47.638;18.966;2022-09-09T08:11:50;25.40;69.11
71254;HTU21D;59019;47.638;18.966;2022-09-09T08:14:16;25.51;68.94
71254;HTU21D;59019;47.638;18.966;2022-09-09T08:16:44;25.75;68.93
71254;HTU21D;59019;47.638;18.966;2022-09-09T08:19:10;25.77;68.15
71254;HTU21D;59019;47.638;18.966;2022-09-09T08:21:38;25.90;68.52
71254;HTU21D;59019;47.638;18.966;2022-09-09T08:24:06;25.86;66.81
71254;HTU21D;59019;47.638;18.966;2022-09-09T08:26:34;26.11;67.33
71254;HTU21D;59019;47.638;18.966;2022-09-09T08:29:02;25.87;66.66
71254;HTU21D;59019;47.638;18.966;2022-09-09T08:31:37;25.95;67.81
71254;HTU21D;59019;47.638;18.966;2022-09-09T08:34:04;26.16;67.35
71254;HTU21D;59019;47.638;18.966;2022-09-09T08:36:33;26.49;66.21
71254;HTU21D;59019;47.638;18.966;2022-09-09T08:38:59;26.70;66.03
71254;HTU21D;59019;47.638;18.966;2022-09-09T08:44:26;27.30;64.29
71254;HTU21D;59019;47.638;18.966;2022-09-09T08:50:02;27.34;63.69
71254;HTU21D;59019;47.638;18.966;2022-09-09T08:57:54;27.72;62.53
71254;HTU21D;59019;47.638;18.966;2022-09-09T09:00:21;27.76;61.67
71254;HTU21D;59019;47.638;18.966;2022-09-09T09:06:04;27.93;61.63
71254;HTU21D;59019;47.638;18.966;2022-09-09T09:08:43;27.68;61.05
71254;HTU21D;59019;47.638;18.966;2022-09-09T09:11:09;27.99;61.34
71254;HTU21D;59019;47.638;18.966;2022-09-09T09:18:59;28.31;60.24
71254;HTU21D;59019;47.638;18.966;2022-09-09T09:21:45;28.63;58.77
71254;HTU21D;59019;47.638;18.966;2022-09-09T09:24:20;28.85;59.10
71254;HTU21D;59019;47.638;18.966;2022-09-09T09:26:46;29.06;57.46
71254;HTU21D;59019;47.638;18.966;2022-09-09T09:29:15;29.27;57.57
71254;HTU21D;59019;47.638;18.966;2022-09-09T09:31:51;29.18;56.20
71254;HTU21D;59019;47.638;18.966;2022-09-09T09:34:17;29.09;56.36
71254;HTU21D;59019;47.638;18.966;2022-09-09T09:36:52;29.02;56.91
71254;HTU21D;59019;47.638;18.966;2022-09-09T09:39:28;29.08;56.67
71254;HTU21D;59019;47.638;18.966;2022-09-09T09:41:54;29.43;57.41
71254;HTU21D;59019;47.638;18.966;2022-09-09T09:44:29;29.56;55.45
71254;HTU21D;59019;47.638;18.966;2022-09-09T09:47:15;29.68;55.78
71254;HTU21D;59019;47.638;18.966;2022-09-09T09:49:55;29.91;55.22
71254;HTU21D;59019;47.638;18.966;2022-09-09T09:52:24;29.82;54.50
71254;HTU21D;59019;47.638;18.966;2022-09-09T09:54:50;30.09;54.88
71254;HTU21D;59019;47.638;18.966;2022-09-09T09:57:18;30.06;51.04
71254;HTU21D;59019;47.638;18.966;2022-09-09T09:59:48;29.48;49.42
71254;HTU21D;59019;47.638;18.966;2022-09-09T10:02:17;30.06;48.17
71254;HTU21D;59019;47.638;18.966;2022-09-09T10:04:43;30.56;47.63
71254;HTU21D;59019;47.638;18.966;2022-09-09T10:07:21;30.90;50.98
71254;HTU21D;59019;47.638;18.966;2022-09-09T10:09:53;31.19;49.03
71254;HTU21D;59019;47.638;18.966;2022-09-09T10:18:06;30.62;47.82
71254;HTU21D;59019;47.638;18.966;2022-09-09T10:21:02;31.11;49.09
71254;HTU21D;59019;47.638;18.966;2022-09-09T10:32:10;32.61;42.20
71254;HTU21D;59019;47.638;18.966;2022-09-09T10:35:12;32.62;42.19
71254;HTU21D;59019;47.638;18.966;2022-09-09T10:52:38;31.07;42.90
71254;HTU21D;59019;47.638;18.966;2022-09-09T10:55:14;30.96;42.52
71254;HTU21D;59019;47.638;18.966;2022-09-09T10:57:47;31.21;43.90
71254;HTU21D;59019;47.638;18.966;2022-09-09T11:00:19;31.64;42.93
71254;HTU21D;59019;47.638;18.966;2022-09-09T11:02:59;31.92;44.51
71254;HTU21D;59019;47.638;18.966;2022-09-09T11:08:14;32.01;44.20
71254;HTU21D;59019;47.638;18.966;2022-09-09T11:18:59;31.75;45.66
71254;HTU21D;59019;47.638;18.966;2022-09-09T11:21:32;31.86;45.46
71254;HTU21D;59019;47.638;18.966;2022-09-09T11:24:05;31.49;45.45
71254;HTU21D;59019;47.638;18.966;2022-09-09T11:26:46;31.43;45.91
71254;HTU21D;59019;47.638;18.966;2022-09-09T11:35:01;31.58;44.74
71254;HTU21D;59019;47.638;18.966;2022-09-09T11:40:25;30.78;46.05
71254;HTU21D;59019;47.638;18.966;2022-09-09T11:43:10;30.41;47.01
71254;HTU21D;59019;47.638;18.966;2022-09-09T11:45:40;30.18;48.50
71254;HTU21D;59019;47.638;18.966;2022-09-09T11:51:04;29.56;48.86
71254;HTU21D;59019;47.638;18.966;2022-09-09T11:53:31;29.26;48.37
71254;HTU21D;59019;47.638;18.966;2022-09-09T11:56:12;29.17;49.58
71254;HTU21D;59019;47.638;18.966;2022-09-09T11:59:00;29.00;49.54
71254;HTU21D;59019;47.638;18.966;2022-09-09T12:04:16;29.01;49.82
71254;HTU21D;59019;47.638;18.966;2022-09-09T12:09:48;28.73;46.60
71254;HTU21D;59019;47.638;18.966;2022-09-09T12:19:41;30.95;42.32
71254;HTU21D;59019;47.638;18.966;2022-09-09T12:28:22;31.75;41.59
71254;HTU21D;59019;47.638;18.966;2022-09-09T12:31:01;31.85;40.75
71254;HTU21D;59019;47.638;18.966;2022-09-09T12:33:37;31.96;41.16
71254;HTU21D;59019;47.638;18.966;2022-09-09T12:36:05;32.11;40.46
71254;HTU21D;59019;47.638;18.966;2022-09-09T12:38:38;31.28;40.41
71254;HTU21D;59019;47.638;18.966;2022-09-09T12:41:04;31.26;40.06
71254;HTU21D;59019;47.638;18.966;2022-09-09T12:43:30;31.71;40.87
71254;HTU21D;59019;47.638;18.966;2022-09-09T12:46:08;32.03;40.17
71254;HTU21D;59019;47.638;18.966;2022-09-09T12:48:40;32.17;42.73
71254;HTU21D;59019;47.638;18.966;2022-09-09T12:51:27;32.41;39.29
71254;HTU21D;59019;47.638;18.966;2022-09-09T12:53:54;32.59;38.87
71254;HTU21D;59019;47.638;18.966;2022-09-09T12:56:25;32.83;39.68
71254;HTU21D;59019;47.638;18.966;2022-09-09T12:58:53;32.69;38.59
71254;HTU21D;59019;47.638;18.966;2022-09-09T13:03:50;32.88;38.71
71254;HTU21D;59019;47.638;18.966;2022-09-09T13:06:23;33.03;38.65
71254;HTU21D;59019;47.638;18.966;2022-09-09T13:08:54;33.29;38.10
71254;HTU21D;59019;47.638;18.966;2022-09-09T13:14:03;33.43;37.03
71254;HTU21D;59019;47.638;18.966;2022-09-09T13:16:31;33.16;35.92
71254;HTU21D;59019;47.638;18.966;2022-09-09T13:19:06;32.94;36.14
71254;HTU21D;59019;47.638;18.966;2022-09-09T13:21:39;32.82;36.99
71254;HTU21D;59019;47.638;18.966;2022-09-09T13:24:07;32.60;38.48
71254;HTU21D;59019;47.638;18.966;2022-09-09T13:26:54;32.16;38.94
71254;HTU21D;59019;47.638;18.966;2022-09-09T13:29:22;31.54;37.47
71254;HTU21D;59019;47.638;18.966;2022-09-09T13:31:48;31.24;38.12
71254;HTU21D;59019;47.638;18.966;2022-09-09T13:34:27;30.98;38.67
71254;HTU21D;59019;47.638;18.966;2022-09-09T13:36:55;30.82;39.46
71254;HTU21D;59019;47.638;18.966;2022-09-09T13:39:23;30.72;39.87
71254;HTU21D;59019;47.638;18.966;2022-09-09T13:41:49;30.52;39.79
71254;HTU21D;59019;47.638;18.966;2022-09-09T13:44:29;30.42;39.66
71254;HTU21D;59019;47.638;18.966;2022-09-09T13:47:20;30.24;41.58
71254;HTU21D;59019;47.638;18.966;2022-09-09T13:49:46;30.08;40.61
71254;HTU21D;59019;47.638;18.966;2022-09-09T13:52:17;30.04;39.86
71254;HTU21D;59019;47.638;18.966;2022-09-09T13:54:50;29.92;41.60
71254;HTU21D;59019;47.638;18.966;2022-09-09T13:57:21;29.83;40.52
71254;HTU21D;59019;47.638;18.966;2022-09-09T13:59:48;29.53;41.32
71254;HTU21D;59019;47.638;18.966;2022-09-09T14:02:14;29.32;40.94
71254;HTU21D;59019;47.638;18.966;2022-09-09T14:04:41;29.23;41.76
71254;HTU21D;59019;47.638;18.966;2022-09-09T14:07:11;29.45;42.14
71254;HTU21D;59019;47.638;18.966;2022-09-09T14:09:38;29.87;40.07
71254;HTU21D;59019;47.638;18.966;2022-09-09T14:12:04;30.20;40.72
71254;HTU21D;59019;47.638;18.966;2022-09-09T14:14:30;30.51;38.99
71254;HTU21D;59019;47.638;18.966;2022-09-09T14:16:55;30.45;37.95
71254;HTU21D;59019;47.638;18.966;2022-09-09T14:19:21;30.72;38.60
71254;HTU21D;59019;47.638;18.966;2022-09-09T14:21:46;30.75;38.88
71254;HTU21D;59019;47.638;18.966;2022-09-09T14:24:12;30.44;40.06
71254;HTU21D;59019;47.638;18.966;2022-09-09T14:26:38;29.94;40.29
71254;HTU21D;59019;47.638;18.966;2022-09-09T14:29:03;29.62;41.43
71254;HTU21D;59019;47.638;18.966;2022-09-09T14:31:29;29.37;41.52
71254;HTU21D;59019;47.638;18.966;2022-09-09T14:33:54;29.19;42.12
71254;HTU21D;59019;47.638;18.966;2022-09-09T14:36:20;28.98;41.21
71254;HTU21D;59019;47.638;18.966;2022-09-09T14:38:46;28.56;42.81
71254;HTU21D;59019;47.638;18.966;2022-09-09T14:41:13;28.38;44.81
71254;HTU21D;59019;47.638;18.966;2022-09-09T14:43:42;28.19;42.87
71254;HTU21D;59019;47.638;18.966;2022-09-09T14:46:12;28.02;45.70
71254;HTU21D;59019;47.638;18.966;2022-09-09T14:48:38;27.78;46.81
71254;HTU21D;59019;47.638;18.966;2022-09-09T14:51:13;27.61;47.87
71254;HTU21D;59019;47.638;18.966;2022-09-09T14:53:40;27.45;48.35
71254;HTU21D;59019;47.638;18.966;2022-09-09T14:56:08;27.39;49.13
71254;HTU21D;59019;47.638;18.966;2022-09-09T14:58:35;27.28;47.42
71254;HTU21D;59019;47.638;18.966;2022-09-09T15:01:05;27.36;50.33
71254;HTU21D;59019;47.638;18.966;2022-09-09T15:03:31;27.36;52.52
71254;HTU21D;59019;47.638;18.966;2022-09-09T15:05:57;27.38;54.69
71254;HTU21D;59019;47.638;18.966;2022-09-09T15:08:24;27.38;54.09
71254;HTU21D;59019;47.638;18.966;2022-09-09T15:10:50;27.31;55.10
71254;HTU21D;59019;47.638;18.966;2022-09-09T15:13:17;27.24;53.20
71254;HTU21D;59019;47.638;18.966;2022-09-09T15:15:43;27.21;54.92
71254;HTU21D;59019;47.638;18.966;2022-09-09T15:18:09;27.16;56.46
71254;HTU21D;59019;47.638;18.966;2022-09-09T15:20:34;27.16;58.09
71254;HTU21D;59019;47.638;18.966;2022-09-09T15:23:03;27.22;57.90
71254;HTU21D;59019;47.638;18.966;2022-09-09T15:25:28;26.98;57.84
71254;HTU21D;59019;47.638;18.966;2022-09-09T15:27:54;26.80;57.01
71254;HTU21D;59019;47.638;18.966;2022-09-09T15:30:20;26.50;56.66
71254;HTU21D;59019;47.638;18.966;2022-09-09T15:32:46;26.42;57.53
71254;HTU21D;59019;47.638;18.966;2022-09-09T15:35:12;26.20;58.58
71254;HTU21D;59019;47.638;18.966;2022-09-09T15:37:37;26.07;59.06
71254;HTU21D;59019;47.638;18.966;2022-09-09T15:40:03;25.97;59.77
71254;HTU21D;59019;47.638;18.966;2022-09-09T15:42:29;25.73;61.04
71254;HTU21D;59019;47.638;18.966;2022-09-09T15:44:55;25.67;61.68
71254;HTU21D;59019;47.638;18.966;2022-09-09T15:47:20;25.62;61.17
71254;HTU21D;59019;47.638;18.966;2022-09-09T15:49:46;25.44;62.21
71254;HTU21D;59019;47.638;18.966;2022-09-09T15:52:12;25.23;62.86
71254;HTU21D;59019;47.638;18.966;2022-09-09T15:54:38;25.08;62.76
71254;HTU21D;59019;47.638;18.966;2022-09-09T15:57:06;24.79;62.07
71254;HTU21D;59019;47.638;18.966;2022-09-09T15:59:32;24.61;63.24
71254;HTU21D;59019;47.638;18.966;2022-09-09T16:01:58;24.55;63.02
71254;HTU21D;59019;47.638;18.966;2022-09-09T16:04:26;24.42;65.17
71254;HTU21D;59019;47.638;18.966;2022-09-09T16:06:54;24.31;66.49
71254;HTU21D;59019;47.638;18.966;2022-09-09T16:09:20;24.18;65.66
71254;HTU21D;59019;47.638;18.966;2022-09-09T16:11:46;23.97;65.75
71254;HTU21D;59019;47.638;18.966;2022-09-09T16:14:13;23.85;64.95
71254;HTU21D;59019;47.638;18.966;2022-09-09T16:16:41;23.76;64.56
71254;HTU21D;59019;47.638;18.966;2022-09-09T16:19:08;23.64;65.01
71254;HTU21D;59019;47.638;18.966;2022-09-09T16:21:44;23.51;66.24
71254;HTU21D;59019;47.638;18.966;2022-09-09T16:24:12;23.37;68.38
71254;HTU21D;59019;47.638;18.966;2022-09-09T16:26:41;23.23;67.85
71254;HTU21D;59019;47.638;18.966;2022-09-09T16:29:08;23.13;66.95
71254;HTU21D;59019;47.638;18.966;2022-09-09T16:31:34;23.03;66.79
71254;HTU21D;59019;47.638;18.966;2022-09-09T16:34:00;22.90;67.85
71254;HTU21D;59019;47.638;18.966;2022-09-09T16:36:28;22.84;68.91
71254;HTU21D;59019;47.638;18.966;2022-09-09T16:38:57;22.84;69.68
71254;HTU21D;59019;47.638;18.966;2022-09-09T16:41:23;22.78;70.99
71254;HTU21D;59019;47.638;18.966;2022-09-09T16:43:57;22.67;71.64
71254;HTU21D;59019;47.638;18.966;2022-09-09T16:46:23;22.54;72.48
71254;HTU21D;59019;47.638;18.966;2022-09-09T16:48:50;22.42;72.84
71254;HTU21D;59019;47.638;18.966;2022-09-09T16:51:27;22.11;74.47
71254;HTU21D;59019;47.638;18.966;2022-09-09T16:53:55;22.02;70.82
71254;HTU21D;59019;47.638;18.966;2022-09-09T16:56:23;21.80;71.10
71254;HTU21D;59019;47.638;18.966;2022-09-09T16:58:54;21.73;72.22
71254;HTU21D;59019;47.638;18.966;2022-09-09T17:01:27;21.64;73.54
71254;HTU21D;59019;47.638;18.966;2022-09-09T17:03:54;21.61;72.43
71254;HTU21D;59019;47.638;18.966;2022-09-09T17:06:20;21.27;73.15
71254;HTU21D;59019;47.638;18.966;2022-09-09T17:08:46;21.17;73.47
71254;HTU21D;59019;47.638;18.966;2022-09-09T17:11:18;21.23;73.43
71254;HTU21D;59019;47.638;18.966;2022-09-09T17:13:46;21.05;72.90
71254;HTU21D;59019;47.638;18.966;2022-09-09T17:16:13;20.78;73.28
71254;HTU21D;59019;47.638;18.966;2022-09-09T17:18:39;20.66;74.07
71254;HTU21D;59019;47.638;18.966;2022-09-09T17:21:12;20.50;74.64
71254;HTU21D;59019;47.638;18.966;2022-09-09T17:23:38;20.54;74.95
71254;HTU21D;59019;47.638;18.966;2022-09-09T17:26:05;20.45;74.57
71254;HTU21D;59019;47.638;18.966;2022-09-09T17:28:33;20.55;75.83
71254;HTU21D;59019;47.638;18.966;2022-09-09T17:31:00;20.33;76.47
71254;HTU21D;59019;47.638;18.966;2022-09-09T17:33:30;20.28;77.10